sensor_id;sensor_type;location;lat;lon;timestamp;P1;durP1;ratioP1;P2;durP2;ratioP2
72085;SDS011;64750;52.134;5.424;2023-02-03T00:01:42;7.80;;;1.83;;
72085;SDS011;64750;52.134;5.424;2023-02-03T00:04:08;6.50;;;2.40;;
72085;SDS011;64750;52.134;5.424;2023-02-03T00:06:34;8.80;;;2.13;;
72085;SDS011;64750;52.134;5.424;2023-02-03T00:09:01;7.05;;;1.60;;
72085;SDS011;64750;52.134;5.424;2023-02-03T00:11:28;7.47;;;1.65;;
72085;SDS011;64750;52.134;5.424;2023-02-03T00:13:55;8.20;;;2.40;;
72085;SDS011;64750;52.134;5.424;2023-02-03T00:16:22;4.00;;;1.35;;
72085;SDS011;64750;52.134;5.424;2023-02-03T00:18:48;10.80;;;1.67;;
72085;SDS011;64750;52.134;5.424;2023-02-03T00:21:15;4.65;;;1.50;;
72085;SDS011;64750;52.134;5.424;2023-02-03T00:23:41;6.40;;;1.80;;
72085;SDS011;64750;52.134;5.424;2023-02-03T00:26:08;5.70;;;1.73;;
72085;SDS011;64750;52.134;5.424;2023-02-03T00:28:36;6.68;;;1.40;;
72085;SDS011;64750;52.134;5.424;2023-02-03T00:31:03;7.43;;;1.40;;
72085;SDS011;64750;52.134;5.424;2023-02-03T00:33:30;5.20;;;1.75;;
72085;SDS011;64750;52.134;5.424;2023-02-03T00:36:03;8.02;;;1.75;;
72085;SDS011;64750;52.134;5.424;2023-02-03T00:38:30;7.82;;;1.40;;
72085;SDS011;64750;52.134;5.424;2023-02-03T00:40:57;7.00;;;2.20;;
72085;SDS011;64750;52.134;5.424;2023-02-03T00:43:23;5.13;;;1.20;;
72085;SDS011;64750;52.134;5.424;2023-02-03T00:45:49;23.30;;;6.40;;
72085;SDS011;64750;52.134;5.424;2023-02-03T00:48:16;5.70;;;1.50;;
72085;SDS011;64750;52.134;5.424;2023-02-03T00:50:44;5.68;;;1.90;;
72085;SDS011;64750;52.134;5.424;2023-02-03T00:53:11;8.30;;;1.88;;
72085;SDS011;64750;52.134;5.424;2023-02-03T00:55:38;7.40;;;1.17;;
72085;SDS011;64750;52.134;5.424;2023-02-03T00:58:05;6.07;;;1.38;;
72085;SDS011;64750;52.134;5.424;2023-02-03T01:00:31;6.60;;;1.63;;
72085;SDS011;64750;52.134;5.424;2023-02-03T01:02:57;6.10;;;1.70;;
72085;SDS011;64750;52.134;5.424;2023-02-03T01:05:24;5.55;;;1.30;;
72085;SDS011;64750;52.134;5.424;2023-02-03T01:07:50;8.10;;;1.30;;
72085;SDS011;64750;52.134;5.424;2023-02-03T01:10:17;6.90;;;1.55;;
72085;SDS011;64750;52.134;5.424;2023-02-03T01:12:44;7.93;;;1.85;;
72085;SDS011;64750;52.134;5.424;2023-02-03T01:15:11;8.40;;;1.40;;
72085;SDS011;64750;52.134;5.424;2023-02-03T01:17:37;8.60;;;1.58;;
72085;SDS011;64750;52.134;5.424;2023-02-03T01:20:04;3.40;;;1.30;;
72085;SDS011;64750;52.134;5.424;2023-02-03T01:22:30;8.13;;;1.38;;
72085;SDS011;64750;52.134;5.424;2023-02-03T01:24:57;6.78;;;1.05;;
72085;SDS011;64750;52.134;5.424;2023-02-03T01:27:23;6.75;;;1.92;;
72085;SDS011;64750;52.134;5.424;2023-02-03T01:29:50;4.70;;;1.27;;
72085;SDS011;64750;52.134;5.424;2023-02-03T01:32:16;4.70;;;1.40;;
72085;SDS011;64750;52.134;5.424;2023-02-03T01:34:43;5.22;;;1.33;;
72085;SDS011;64750;52.134;5.424;2023-02-03T01:37:09;4.43;;;1.17;;
72085;SDS011;64750;52.134;5.424;2023-02-03T01:39:35;5.05;;;1.65;;
72085;SDS011;64750;52.134;5.424;2023-02-03T01:42:02;6.85;;;1.40;;
72085;SDS011;64750;52.134;5.424;2023-02-03T01:47:12;3.88;;;1.40;;
72085;SDS011;64750;52.134;5.424;2023-02-03T01:49:50;5.55;;;1.02;;
72085;SDS011;64750;52.134;5.424;2023-02-03T01:52:21;9.07;;;1.40;;
72085;SDS011;64750;52.134;5.424;2023-02-03T01:54:48;8.30;;;1.30;;
72085;SDS011;64750;52.134;5.424;2023-02-03T01:57:28;5.43;;;1.00;;
72085;SDS011;64750;52.134;5.424;2023-02-03T02:00:00;3.70;;;1.45;;
72085;SDS011;64750;52.134;5.424;2023-02-03T02:02:30;5.00;;;1.65;;
72085;SDS011;64750;52.134;5.424;2023-02-03T02:05:03;5.18;;;1.20;;
72085;SDS011;64750;52.134;5.424;2023-02-03T02:07:37;9.60;;;1.15;;
72085;SDS011;64750;52.134;5.424;2023-02-03T02:10:06;7.97;;;1.33;;
72085;SDS011;64750;52.134;5.424;2023-02-03T02:12:33;7.20;;;1.40;;
72085;SDS011;64750;52.134;5.424;2023-02-03T02:14:59;5.65;;;1.10;;
72085;SDS011;64750;52.134;5.424;2023-02-03T02:20:28;4.30;;;0.80;;
72085;SDS011;64750;52.134;5.424;2023-02-03T02:23:13;2.03;;;0.80;;
72085;SDS011;64750;52.134;5.424;2023-02-03T02:25:50;2.67;;;1.17;;
72085;SDS011;64750;52.134;5.424;2023-02-03T02:31:27;4.15;;;1.20;;
72085;SDS011;64750;52.134;5.424;2023-02-03T02:34:13;8.43;;;1.17;;
72085;SDS011;64750;52.134;5.424;2023-02-03T02:37:10;5.33;;;0.93;;
72085;SDS011;64750;52.134;5.424;2023-02-03T02:40:08;6.80;;;1.23;;
72085;SDS011;64750;52.134;5.424;2023-02-03T02:43:18;9.80;;;1.58;;
72085;SDS011;64750;52.134;5.424;2023-02-03T02:45:53;5.07;;;1.30;;
72085;SDS011;64750;52.134;5.424;2023-02-03T02:48:29;4.78;;;1.00;;
72085;SDS011;64750;52.134;5.424;2023-02-03T02:51:15;5.13;;;1.23;;
72085;SDS011;64750;52.134;5.424;2023-02-03T02:53:46;4.95;;;1.13;;
72085;SDS011;64750;52.134;5.424;2023-02-03T02:56:17;7.38;;;0.90;;
72085;SDS011;64750;52.134;5.424;2023-02-03T02:58:44;7.30;;;1.20;;
72085;SDS011;64750;52.134;5.424;2023-02-03T03:01:15;4.35;;;1.00;;
72085;SDS011;64750;52.134;5.424;2023-02-03T03:03:42;5.07;;;0.90;;
72085;SDS011;64750;52.134;5.424;2023-02-03T03:06:11;7.75;;;1.52;;
72085;SDS011;64750;52.134;5.424;2023-02-03T03:08:48;3.95;;;0.73;;
72085;SDS011;64750;52.134;5.424;2023-02-03T03:11:15;6.80;;;1.38;;
72085;SDS011;64750;52.134;5.424;2023-02-03T03:13:46;7.07;;;1.00;;
72085;SDS011;64750;52.134;5.424;2023-02-03T03:16:15;3.33;;;0.70;;
72085;SDS011;64750;52.134;5.424;2023-02-03T03:18:47;5.10;;;0.57;;
72085;SDS011;64750;52.134;5.424;2023-02-03T03:21:22;4.15;;;1.10;;
72085;SDS011;64750;52.134;5.424;2023-02-03T03:23:51;10.63;;;1.20;;
72085;SDS011;64750;52.134;5.424;2023-02-03T03:29:05;3.53;;;0.67;;
72085;SDS011;64750;52.134;5.424;2023-02-03T03:31:37;5.13;;;0.80;;
72085;SDS011;64750;52.134;5.424;2023-02-03T03:34:05;4.60;;;0.80;;
72085;SDS011;64750;52.134;5.424;2023-02-03T03:36:39;2.33;;;0.75;;
72085;SDS011;64750;52.134;5.424;2023-02-03T03:39:32;1.95;;;0.82;;
72085;SDS011;64750;52.134;5.424;2023-02-03T03:42:09;8.27;;;0.90;;
72085;SDS011;64750;52.134;5.424;2023-02-03T03:48:13;5.90;;;1.20;;
72085;SDS011;64750;52.134;5.424;2023-02-03T03:50:27;3.22;;;0.90;;
72085;SDS011;64750;52.134;5.424;2023-02-03T03:52:56;4.70;;;0.90;;
72085;SDS011;64750;52.134;5.424;2023-02-03T03:55:25;5.50;;;1.23;;
72085;SDS011;64750;52.134;5.424;2023-02-03T03:57:55;6.68;;;1.08;;
72085;SDS011;64750;52.134;5.424;2023-02-03T04:00:35;1.80;;;0.68;;
72085;SDS011;64750;52.134;5.424;2023-02-03T04:03:06;5.90;;;1.00;;
72085;SDS011;64750;52.134;5.424;2023-02-03T04:05:39;2.88;;;0.77;;
72085;SDS011;64750;52.134;5.424;2023-02-03T04:08:05;3.97;;;1.13;;
72085;SDS011;64750;52.134;5.424;2023-02-03T04:10:33;5.72;;;0.70;;
72085;SDS011;64750;52.134;5.424;2023-02-03T04:13:04;6.55;;;0.63;;
72085;SDS011;64750;52.134;5.424;2023-02-03T04:15:32;3.85;;;0.88;;
72085;SDS011;64750;52.134;5.424;2023-02-03T04:17:59;4.50;;;0.98;;
72085;SDS011;64750;52.134;5.424;2023-02-03T04:20:29;2.80;;;0.80;;
72085;SDS011;64750;52.134;5.424;2023-02-03T04:22:56;4.95;;;1.02;;
72085;SDS011;64750;52.134;5.424;2023-02-03T04:25:24;8.70;;;1.35;;
72085;SDS011;64750;52.134;5.424;2023-02-03T04:27:51;4.18;;;0.80;;
72085;SDS011;64750;52.134;5.424;2023-02-03T04:30:17;5.35;;;0.95;;
72085;SDS011;64750;52.134;5.424;2023-02-03T04:32:44;2.63;;;0.63;;
72085;SDS011;64750;52.134;5.424;2023-02-03T04:35:11;3.72;;;0.60;;
72085;SDS011;64750;52.134;5.424;2023-02-03T04:37:37;3.05;;;0.52;;
72085;SDS011;64750;52.134;5.424;2023-02-03T04:40:04;3.35;;;0.50;;
72085;SDS011;64750;52.134;5.424;2023-02-03T04:42:31;1.75;;;0.90;;
72085;SDS011;64750;52.134;5.424;2023-02-03T04:44:57;5.93;;;0.70;;
72085;SDS011;64750;52.134;5.424;2023-02-03T04:47:24;2.35;;;0.95;;
72085;SDS011;64750;52.134;5.424;2023-02-03T04:49:50;6.57;;;0.80;;
72085;SDS011;64750;52.134;5.424;2023-02-03T04:52:16;4.10;;;0.77;;
72085;SDS011;64750;52.134;5.424;2023-02-03T04:54:43;4.28;;;0.68;;
72085;SDS011;64750;52.134;5.424;2023-02-03T04:57:09;2.27;;;0.57;;
72085;SDS011;64750;52.134;5.424;2023-02-03T04:59:35;4.68;;;0.60;;
72085;SDS011;64750;52.134;5.424;2023-02-03T05:02:02;3.78;;;0.60;;
72085;SDS011;64750;52.134;5.424;2023-02-03T05:04:30;3.63;;;0.77;;
72085;SDS011;64750;52.134;5.424;2023-02-03T05:06:57;3.67;;;0.70;;
72085;SDS011;64750;52.134;5.424;2023-02-03T05:09:23;3.90;;;0.57;;
72085;SDS011;64750;52.134;5.424;2023-02-03T05:11:50;4.05;;;0.75;;
72085;SDS011;64750;52.134;5.424;2023-02-03T05:14:17;5.35;;;0.50;;
72085;SDS011;64750;52.134;5.424;2023-02-03T05:16:43;4.10;;;0.85;;
72085;SDS011;64750;52.134;5.424;2023-02-03T05:19:11;2.72;;;1.20;;
72085;SDS011;64750;52.134;5.424;2023-02-03T05:21:38;3.77;;;0.80;;
72085;SDS011;64750;52.134;5.424;2023-02-03T05:24:05;6.05;;;0.98;;
72085;SDS011;64750;52.134;5.424;2023-02-03T05:26:33;4.05;;;0.55;;
72085;SDS011;64750;52.134;5.424;2023-02-03T05:29:00;3.17;;;0.70;;
72085;SDS011;64750;52.134;5.424;2023-02-03T05:31:26;5.30;;;0.90;;
72085;SDS011;64750;52.134;5.424;2023-02-03T05:33:54;3.30;;;0.80;;
72085;SDS011;64750;52.134;5.424;2023-02-03T05:36:20;2.28;;;0.63;;
72085;SDS011;64750;52.134;5.424;2023-02-03T05:38:47;3.47;;;0.40;;
72085;SDS011;64750;52.134;5.424;2023-02-03T05:41:13;6.13;;;1.02;;
72085;SDS011;64750;52.134;5.424;2023-02-03T05:43:58;2.25;;;0.45;;
72085;SDS011;64750;52.134;5.424;2023-02-03T05:46:25;1.87;;;0.60;;
72085;SDS011;64750;52.134;5.424;2023-02-03T05:48:51;3.05;;;0.90;;
72085;SDS011;64750;52.134;5.424;2023-02-03T05:51:17;6.25;;;0.70;;
72085;SDS011;64750;52.134;5.424;2023-02-03T05:53:44;5.15;;;0.65;;
72085;SDS011;64750;52.134;5.424;2023-02-03T05:56:10;2.60;;;0.80;;
72085;SDS011;64750;52.134;5.424;2023-02-03T05:58:37;6.23;;;0.83;;
72085;SDS011;64750;52.134;5.424;2023-02-03T06:01:03;3.45;;;0.70;;
72085;SDS011;64750;52.134;5.424;2023-02-03T06:03:29;5.43;;;0.98;;
72085;SDS011;64750;52.134;5.424;2023-02-03T06:05:56;4.35;;;0.70;;
72085;SDS011;64750;52.134;5.424;2023-02-03T06:08:23;5.05;;;0.85;;
72085;SDS011;64750;52.134;5.424;2023-02-03T06:10:57;2.57;;;0.70;;
72085;SDS011;64750;52.134;5.424;2023-02-03T06:13:25;7.13;;;1.08;;
72085;SDS011;64750;52.134;5.424;2023-02-03T06:15:51;5.38;;;0.77;;
72085;SDS011;64750;52.134;5.424;2023-02-03T06:18:18;3.55;;;0.82;;
72085;SDS011;64750;52.134;5.424;2023-02-03T06:20:44;1.65;;;0.85;;
72085;SDS011;64750;52.134;5.424;2023-02-03T06:23:11;2.40;;;0.57;;
72085;SDS011;64750;52.134;5.424;2023-02-03T06:25:37;8.30;;;1.10;;
72085;SDS011;64750;52.134;5.424;2023-02-03T06:28:03;2.17;;;0.80;;
72085;SDS011;64750;52.134;5.424;2023-02-03T06:30:30;5.03;;;1.00;;
72085;SDS011;64750;52.134;5.424;2023-02-03T06:32:56;3.05;;;1.08;;
72085;SDS011;64750;52.134;5.424;2023-02-03T06:35:23;8.70;;;0.90;;
72085;SDS011;64750;52.134;5.424;2023-02-03T06:37:49;6.57;;;0.88;;
72085;SDS011;64750;52.134;5.424;2023-02-03T06:40:15;2.13;;;0.80;;
72085;SDS011;64750;52.134;5.424;2023-02-03T06:42:45;4.65;;;0.95;;
72085;SDS011;64750;52.134;5.424;2023-02-03T06:45:13;4.60;;;0.75;;
72085;SDS011;64750;52.134;5.424;2023-02-03T06:47:40;2.83;;;0.77;;
72085;SDS011;64750;52.134;5.424;2023-02-03T06:50:08;12.90;;;1.60;;
72085;SDS011;64750;52.134;5.424;2023-02-03T06:52:36;2.20;;;1.05;;
72085;SDS011;64750;52.134;5.424;2023-02-03T06:55:03;4.63;;;0.95;;
72085;SDS011;64750;52.134;5.424;2023-02-03T06:57:30;4.03;;;0.80;;
72085;SDS011;64750;52.134;5.424;2023-02-03T06:59:57;4.07;;;0.83;;
72085;SDS011;64750;52.134;5.424;2023-02-03T07:02:24;1.83;;;0.60;;
72085;SDS011;64750;52.134;5.424;2023-02-03T07:04:50;2.90;;;0.93;;
72085;SDS011;64750;52.134;5.424;2023-02-03T07:07:16;6.30;;;1.00;;
72085;SDS011;64750;52.134;5.424;2023-02-03T07:09:43;6.55;;;1.10;;
72085;SDS011;64750;52.134;5.424;2023-02-03T07:12:09;5.23;;;0.90;;
72085;SDS011;64750;52.134;5.424;2023-02-03T07:14:35;7.60;;;1.35;;
72085;SDS011;64750;52.134;5.424;2023-02-03T07:17:04;3.80;;;0.70;;
72085;SDS011;64750;52.134;5.424;2023-02-03T07:19:32;4.15;;;0.82;;
72085;SDS011;64750;52.134;5.424;2023-02-03T07:21:58;8.98;;;0.90;;
72085;SDS011;64750;52.134;5.424;2023-02-03T07:24:24;3.20;;;0.80;;
72085;SDS011;64750;52.134;5.424;2023-02-03T07:26:51;7.07;;;1.00;;
72085;SDS011;64750;52.134;5.424;2023-02-03T07:29:18;5.63;;;1.40;;
72085;SDS011;64750;52.134;5.424;2023-02-03T07:31:44;5.55;;;1.20;;
72085;SDS011;64750;52.134;5.424;2023-02-03T07:34:10;8.00;;;1.30;;
72085;SDS011;64750;52.134;5.424;2023-02-03T07:36:37;5.67;;;0.60;;
72085;SDS011;64750;52.134;5.424;2023-02-03T07:39:03;5.35;;;1.35;;
72085;SDS011;64750;52.134;5.424;2023-02-03T07:41:30;4.75;;;0.70;;
72085;SDS011;64750;52.134;5.424;2023-02-03T07:43:56;4.63;;;0.75;;
72085;SDS011;64750;52.134;5.424;2023-02-03T07:46:23;2.72;;;1.27;;
72085;SDS011;64750;52.134;5.424;2023-02-03T07:48:49;8.97;;;1.10;;
72085;SDS011;64750;52.134;5.424;2023-02-03T07:51:16;5.53;;;1.45;;
72085;SDS011;64750;52.134;5.424;2023-02-03T07:53:42;5.28;;;1.17;;
72085;SDS011;64750;52.134;5.424;2023-02-03T07:56:08;3.38;;;0.95;;
72085;SDS011;64750;52.134;5.424;2023-02-03T07:58:37;3.95;;;0.88;;
72085;SDS011;64750;52.134;5.424;2023-02-03T08:01:10;5.47;;;0.67;;
72085;SDS011;64750;52.134;5.424;2023-02-03T08:03:39;8.00;;;1.63;;
72085;SDS011;64750;52.134;5.424;2023-02-03T08:06:06;8.45;;;1.85;;
72085;SDS011;64750;52.134;5.424;2023-02-03T08:08:33;7.88;;;1.50;;
72085;SDS011;64750;52.134;5.424;2023-02-03T08:11:01;7.88;;;1.30;;
72085;SDS011;64750;52.134;5.424;2023-02-03T08:13:27;2.97;;;0.70;;
72085;SDS011;64750;52.134;5.424;2023-02-03T08:15:53;5.45;;;1.00;;
72085;SDS011;64750;52.134;5.424;2023-02-03T08:18:20;6.20;;;1.00;;
72085;SDS011;64750;52.134;5.424;2023-02-03T08:20:47;7.70;;;0.90;;
72085;SDS011;64750;52.134;5.424;2023-02-03T08:23:14;6.90;;;1.45;;
72085;SDS011;64750;52.134;5.424;2023-02-03T08:25:40;6.07;;;1.00;;
72085;SDS011;64750;52.134;5.424;2023-02-03T08:28:06;6.50;;;1.05;;
72085;SDS011;64750;52.134;5.424;2023-02-03T08:30:33;8.60;;;1.40;;
72085;SDS011;64750;52.134;5.424;2023-02-03T08:32:59;6.35;;;1.00;;
72085;SDS011;64750;52.134;5.424;2023-02-03T08:35:26;5.75;;;1.45;;
72085;SDS011;64750;52.134;5.424;2023-02-03T08:37:52;13.93;;;1.40;;
72085;SDS011;64750;52.134;5.424;2023-02-03T08:40:19;10.57;;;1.30;;
72085;SDS011;64750;52.134;5.424;2023-02-03T08:42:45;6.40;;;0.82;;
72085;SDS011;64750;52.134;5.424;2023-02-03T08:45:12;7.63;;;1.92;;
72085;SDS011;64750;52.134;5.424;2023-02-03T08:47:38;4.60;;;0.85;;
72085;SDS011;64750;52.134;5.424;2023-02-03T08:50:05;5.60;;;1.07;;
72085;SDS011;64750;52.134;5.424;2023-02-03T08:52:33;4.47;;;0.70;;
72085;SDS011;64750;52.134;5.424;2023-02-03T08:55:00;5.72;;;0.98;;
72085;SDS011;64750;52.134;5.424;2023-02-03T08:57:26;4.38;;;1.23;;
72085;SDS011;64750;52.134;5.424;2023-02-03T08:59:57;3.58;;;1.25;;
72085;SDS011;64750;52.134;5.424;2023-02-03T09:02:23;8.00;;;1.80;;
72085;SDS011;64750;52.134;5.424;2023-02-03T09:04:50;5.60;;;1.60;;
72085;SDS011;64750;52.134;5.424;2023-02-03T09:07:17;3.97;;;0.95;;
72085;SDS011;64750;52.134;5.424;2023-02-03T09:09:43;6.28;;;1.88;;
72085;SDS011;64750;52.134;5.424;2023-02-03T09:12:10;2.55;;;1.00;;
72085;SDS011;64750;52.134;5.424;2023-02-03T09:14:38;7.10;;;1.20;;
72085;SDS011;64750;52.134;5.424;2023-02-03T09:17:04;8.25;;;1.00;;
72085;SDS011;64750;52.134;5.424;2023-02-03T09:19:33;5.90;;;1.20;;
72085;SDS011;64750;52.134;5.424;2023-02-03T09:22:01;5.57;;;1.10;;
72085;SDS011;64750;52.134;5.424;2023-02-03T09:24:28;5.22;;;1.33;;
72085;SDS011;64750;52.134;5.424;2023-02-03T09:26:54;10.27;;;1.60;;
72085;SDS011;64750;52.134;5.424;2023-02-03T09:29:21;6.60;;;1.60;;
72085;SDS011;64750;52.134;5.424;2023-02-03T09:31:48;3.55;;;1.20;;
72085;SDS011;64750;52.134;5.424;2023-02-03T09:34:18;6.00;;;1.13;;
72085;SDS011;64750;52.134;5.424;2023-02-03T09:36:46;6.40;;;1.20;;
72085;SDS011;64750;52.134;5.424;2023-02-03T09:39:12;6.83;;;1.50;;
72085;SDS011;64750;52.134;5.424;2023-02-03T09:41:58;6.40;;;1.30;;
72085;SDS011;64750;52.134;5.424;2023-02-03T09:44:40;5.85;;;1.27;;
72085;SDS011;64750;52.134;5.424;2023-02-03T09:47:14;4.38;;;1.30;;
72085;SDS011;64750;52.134;5.424;2023-02-03T09:49:54;7.45;;;1.75;;
72085;SDS011;64750;52.134;5.424;2023-02-03T09:52:25;9.10;;;1.23;;
72085;SDS011;64750;52.134;5.424;2023-02-03T09:54:57;6.65;;;1.02;;
72085;SDS011;64750;52.134;5.424;2023-02-03T09:57:30;6.07;;;0.82;;
72085;SDS011;64750;52.134;5.424;2023-02-03T10:00:03;6.38;;;1.02;;
72085;SDS011;64750;52.134;5.424;2023-02-03T10:08:28;5.63;;;0.88;;
72085;SDS011;64750;52.134;5.424;2023-02-03T10:17:13;5.18;;;1.63;;
72085;SDS011;64750;52.134;5.424;2023-02-03T10:20:03;6.77;;;1.10;;
72085;SDS011;64750;52.134;5.424;2023-02-03T10:22:38;3.40;;;1.00;;
72085;SDS011;64750;52.134;5.424;2023-02-03T10:27:40;5.03;;;1.15;;
72085;SDS011;64750;52.134;5.424;2023-02-03T10:30:14;7.72;;;1.25;;
72085;SDS011;64750;52.134;5.424;2023-02-03T10:32:47;6.57;;;1.10;;
72085;SDS011;64750;52.134;5.424;2023-02-03T10:35:16;7.13;;;0.85;;
72085;SDS011;64750;52.134;5.424;2023-02-03T10:37:47;4.38;;;1.30;;
72085;SDS011;64750;52.134;5.424;2023-02-03T10:40:18;6.35;;;0.90;;
72085;SDS011;64750;52.134;5.424;2023-02-03T10:42:46;5.60;;;1.23;;
72085;SDS011;64750;52.134;5.424;2023-02-03T10:45:35;3.90;;;1.10;;
72085;SDS011;64750;52.134;5.424;2023-02-03T10:48:03;6.57;;;1.02;;
72085;SDS011;64750;52.134;5.424;2023-02-03T10:50:36;4.55;;;1.80;;
72085;SDS011;64750;52.134;5.424;2023-02-03T10:53:32;3.17;;;1.13;;
72085;SDS011;64750;52.134;5.424;2023-02-03T10:58:30;5.37;;;0.73;;
72085;SDS011;64750;52.134;5.424;2023-02-03T11:01:06;2.92;;;0.68;;
72085;SDS011;64750;52.134;5.424;2023-02-03T11:03:36;5.03;;;2.45;;
72085;SDS011;64750;52.134;5.424;2023-02-03T11:08:41;3.33;;;0.80;;
72085;SDS011;64750;52.134;5.424;2023-02-03T11:11:13;7.83;;;0.97;;
72085;SDS011;64750;52.134;5.424;2023-02-03T11:13:55;4.70;;;0.80;;
72085;SDS011;64750;52.134;5.424;2023-02-03T11:16:32;3.92;;;1.10;;
72085;SDS011;64750;52.134;5.424;2023-02-03T11:21:31;5.40;;;1.13;;
72085;SDS011;64750;52.134;5.424;2023-02-03T11:24:08;5.03;;;1.20;;
72085;SDS011;64750;52.134;5.424;2023-02-03T11:26:44;4.45;;;0.98;;
72085;SDS011;64750;52.134;5.424;2023-02-03T11:29:27;3.55;;;1.23;;
72085;SDS011;64750;52.134;5.424;2023-02-03T11:31:57;5.22;;;1.42;;
72085;SDS011;64750;52.134;5.424;2023-02-03T11:34:27;5.07;;;1.25;;
72085;SDS011;64750;52.134;5.424;2023-02-03T11:36:56;5.97;;;0.97;;
72085;SDS011;64750;52.134;5.424;2023-02-03T11:39:27;6.28;;;1.15;;
72085;SDS011;64750;52.134;5.424;2023-02-03T11:42:00;2.78;;;1.38;;
72085;SDS011;64750;52.134;5.424;2023-02-03T11:44:28;4.45;;;1.40;;
72085;SDS011;64750;52.134;5.424;2023-02-03T11:47:03;6.38;;;1.30;;
72085;SDS011;64750;52.134;5.424;2023-02-03T11:49:50;5.53;;;1.20;;
72085;SDS011;64750;52.134;5.424;2023-02-03T12:08:48;2.58;;;0.70;;
72085;SDS011;64750;52.134;5.424;2023-02-03T12:16:44;8.40;;;1.07;;
72085;SDS011;64750;52.134;5.424;2023-02-03T12:19:26;4.00;;;1.08;;
72085;SDS011;64750;52.134;5.424;2023-02-03T12:27:55;4.43;;;1.50;;
72085;SDS011;64750;52.134;5.424;2023-02-03T12:31:14;4.50;;;1.13;;
72085;SDS011;64750;52.134;5.424;2023-02-03T12:33:42;6.00;;;1.50;;
72085;SDS011;64750;52.134;5.424;2023-02-03T12:36:15;10.75;;;1.33;;
72085;SDS011;64750;52.134;5.424;2023-02-03T12:38:53;5.03;;;1.73;;
72085;SDS011;64750;52.134;5.424;2023-02-03T12:41:26;8.30;;;1.88;;
72085;SDS011;64750;52.134;5.424;2023-02-03T12:43:57;8.90;;;1.60;;
72085;SDS011;64750;52.134;5.424;2023-02-03T12:51:53;5.18;;;1.20;;
72085;SDS011;64750;52.134;5.424;2023-02-03T12:57:14;4.97;;;1.40;;
72085;SDS011;64750;52.134;5.424;2023-02-03T12:59:56;6.97;;;1.42;;
72085;SDS011;64750;52.134;5.424;2023-02-03T13:02:31;7.38;;;1.90;;
72085;SDS011;64750;52.134;5.424;2023-02-03T13:05:08;8.10;;;1.75;;
72085;SDS011;64750;52.134;5.424;2023-02-03T13:07:48;11.35;;;2.03;;
72085;SDS011;64750;52.134;5.424;2023-02-03T13:10:25;10.10;;;1.80;;
72085;SDS011;64750;52.134;5.424;2023-02-03T13:12:59;8.93;;;2.03;;
72085;SDS011;64750;52.134;5.424;2023-02-03T13:15:36;5.70;;;1.48;;
72085;SDS011;64750;52.134;5.424;2023-02-03T13:18:14;8.32;;;2.03;;
72085;SDS011;64750;52.134;5.424;2023-02-03T13:20:51;11.35;;;1.92;;
72085;SDS011;64750;52.134;5.424;2023-02-03T13:23:19;10.60;;;2.50;;
72085;SDS011;64750;52.134;5.424;2023-02-03T13:31:30;5.18;;;1.80;;
72085;SDS011;64750;52.134;5.424;2023-02-03T13:42:18;11.18;;;2.55;;
72085;SDS011;64750;52.134;5.424;2023-02-03T13:44:51;11.38;;;2.42;;
72085;SDS011;64750;52.134;5.424;2023-02-03T13:47:25;9.35;;;1.77;;
72085;SDS011;64750;52.134;5.424;2023-02-03T13:49:56;12.13;;;1.60;;
72085;SDS011;64750;52.134;5.424;2023-02-03T13:52:27;14.25;;;2.28;;
72085;SDS011;64750;52.134;5.424;2023-02-03T13:54:58;14.23;;;1.70;;
72085;SDS011;64750;52.134;5.424;2023-02-03T13:57:30;15.75;;;2.38;;
72085;SDS011;64750;52.134;5.424;2023-02-03T14:00:06;17.65;;;3.33;;
72085;SDS011;64750;52.134;5.424;2023-02-03T14:03:14;11.43;;;2.27;;
72085;SDS011;64750;52.134;5.424;2023-02-03T14:05:45;9.90;;;1.83;;
72085;SDS011;64750;52.134;5.424;2023-02-03T14:16:33;13.83;;;2.47;;
72085;SDS011;64750;52.134;5.424;2023-02-03T14:19:01;15.45;;;2.70;;
72085;SDS011;64750;52.134;5.424;2023-02-03T14:21:28;15.68;;;2.70;;
72085;SDS011;64750;52.134;5.424;2023-02-03T14:24:06;17.17;;;2.58;;
72085;SDS011;64750;52.134;5.424;2023-02-03T14:26:38;18.10;;;2.15;;
72085;SDS011;64750;52.134;5.424;2023-02-03T14:29:09;15.57;;;2.87;;
72085;SDS011;64750;52.134;5.424;2023-02-03T14:31:54;15.25;;;2.15;;
72085;SDS011;64750;52.134;5.424;2023-02-03T14:34:26;16.02;;;2.50;;
72085;SDS011;64750;52.134;5.424;2023-02-03T14:36:56;11.75;;;2.38;;
72085;SDS011;64750;52.134;5.424;2023-02-03T14:39:39;16.65;;;2.22;;
72085;SDS011;64750;52.134;5.424;2023-02-03T14:45:00;15.52;;;2.15;;
72085;SDS011;64750;52.134;5.424;2023-02-03T14:47:41;15.98;;;2.30;;
72085;SDS011;64750;52.134;5.424;2023-02-03T14:50:17;10.98;;;1.92;;
72085;SDS011;64750;52.134;5.424;2023-02-03T15:11:58;17.85;;;3.22;;
72085;SDS011;64750;52.134;5.424;2023-02-03T15:14:25;21.13;;;2.95;;
72085;SDS011;64750;52.134;5.424;2023-02-03T15:17:02;24.42;;;3.38;;
72085;SDS011;64750;52.134;5.424;2023-02-03T15:19:39;15.90;;;2.40;;
72085;SDS011;64750;52.134;5.424;2023-02-03T15:22:20;12.43;;;2.70;;
72085;SDS011;64750;52.134;5.424;2023-02-03T15:24:56;14.15;;;2.22;;
72085;SDS011;64750;52.134;5.424;2023-02-03T15:27:25;13.65;;;2.28;;
72085;SDS011;64750;52.134;5.424;2023-02-03T15:29:53;16.52;;;2.10;;
72085;SDS011;64750;52.134;5.424;2023-02-03T15:32:33;19.10;;;2.75;;
72085;SDS011;64750;52.134;5.424;2023-02-03T15:35:08;9.43;;;2.20;;
72085;SDS011;64750;52.134;5.424;2023-02-03T15:37:43;19.08;;;2.60;;
72085;SDS011;64750;52.134;5.424;2023-02-03T15:40:15;12.77;;;2.03;;
72085;SDS011;64750;52.134;5.424;2023-02-03T15:45:38;12.50;;;2.33;;
72085;SDS011;64750;52.134;5.424;2023-02-03T15:48:37;12.83;;;2.87;;
72085;SDS011;64750;52.134;5.424;2023-02-03T15:51:12;7.05;;;1.92;;
72085;SDS011;64750;52.134;5.424;2023-02-03T15:56:21;18.23;;;2.08;;
72085;SDS011;64750;52.134;5.424;2023-02-03T15:58:55;14.18;;;2.30;;
72085;SDS011;64750;52.134;5.424;2023-02-03T16:01:23;15.13;;;3.03;;
72085;SDS011;64750;52.134;5.424;2023-02-03T16:03:52;14.43;;;2.58;;
72085;SDS011;64750;52.134;5.424;2023-02-03T16:06:38;12.70;;;2.40;;
72085;SDS011;64750;52.134;5.424;2023-02-03T16:09:25;13.48;;;2.03;;
72085;SDS011;64750;52.134;5.424;2023-02-03T16:14:41;12.70;;;2.57;;
72085;SDS011;64750;52.134;5.424;2023-02-03T16:22:42;18.95;;;2.53;;
72085;SDS011;64750;52.134;5.424;2023-02-03T16:27:39;14.30;;;2.20;;
72085;SDS011;64750;52.134;5.424;2023-02-03T16:33:11;7.97;;;1.50;;
72085;SDS011;64750;52.134;5.424;2023-02-03T16:36:00;14.00;;;2.42;;
72085;SDS011;64750;52.134;5.424;2023-02-03T16:38:54;16.63;;;3.25;;
72085;SDS011;64750;52.134;5.424;2023-02-03T16:41:39;12.57;;;2.27;;
72085;SDS011;64750;52.134;5.424;2023-02-03T16:44:24;19.75;;;2.67;;
72085;SDS011;64750;52.134;5.424;2023-02-03T16:50:17;14.73;;;2.65;;
72085;SDS011;64750;52.134;5.424;2023-02-03T16:53:05;9.55;;;2.17;;
72085;SDS011;64750;52.134;5.424;2023-02-03T16:55:37;15.83;;;3.33;;
72085;SDS011;64750;52.134;5.424;2023-02-03T16:58:04;13.23;;;2.15;;
72085;SDS011;64750;52.134;5.424;2023-02-03T17:00:31;14.20;;;2.17;;
72085;SDS011;64750;52.134;5.424;2023-02-03T17:02:57;20.75;;;2.78;;
72085;SDS011;64750;52.134;5.424;2023-02-03T17:05:24;24.33;;;3.58;;
72085;SDS011;64750;52.134;5.424;2023-02-03T17:07:50;11.50;;;2.83;;
72085;SDS011;64750;52.134;5.424;2023-02-03T17:10:16;15.98;;;2.80;;
72085;SDS011;64750;52.134;5.424;2023-02-03T17:12:43;15.95;;;2.58;;
72085;SDS011;64750;52.134;5.424;2023-02-03T17:15:09;15.32;;;3.67;;
72085;SDS011;64750;52.134;5.424;2023-02-03T17:17:36;12.80;;;2.60;;
72085;SDS011;64750;52.134;5.424;2023-02-03T17:20:03;20.93;;;4.80;;
72085;SDS011;64750;52.134;5.424;2023-02-03T17:22:30;12.90;;;2.67;;
72085;SDS011;64750;52.134;5.424;2023-02-03T17:24:57;19.73;;;3.08;;
72085;SDS011;64750;52.134;5.424;2023-02-03T17:27:23;19.15;;;2.78;;